Flight Track Log - Related Links

Times and Time Zones

All times are in EDT time to prevent confusion due to time zone crossing. See the UAL5908 flight status page for this flight to view local times or setup timezone preferences in your user account.

Time Position Orientation Groundspeed Altitude Reporting Facility
EDT Latitude Longitude Course Direction KTS MPH feet Rate Location/Type
Sat 05:53:51 AM 33.6500 -84.3833 99° East 152 175 2,400  Level Atlanta TRACON
Sat 05:54:51 AM 33.6667 -84.3333 68° East 195 224 3,900 1,619 Climbing Atlanta TRACON
Sat 05:55:57 AM 33.6833 -84.2500 76° East 238 274 5,800 2,000 Climbing Atlanta TRACON
Sat 05:56:00 AM 33.8423 -84.1836 73° East  Level Estimated
Sat 05:56:51 AM 33.7167 -84.1833 59° Northeast 251 289 7,900  Level Atlanta TRACON
Sat 05:57:00 AM 33.9107 -84.1020 54° Northeast  Level Estimated
Sat 05:57:49 AM 33.7503 -84.1189 58° Northeast 262 302 9,600  Level Atlanta Center
Sat 05:58:00 AM 33.8950 -83.9874 99° East  Level FlightAware Approximate
Sat 05:58:49 AM 33.7881 -84.0364 61° Northeast 262 302 11,100  Level Atlanta Center
Sat 05:59:00 AM 33.8792 -83.8730 99° East  Level FlightAware Approximate
Sat 05:59:49 AM 33.8275 -83.9464 62° Northeast 275 316 12,200  Level Atlanta Center
Sat 06:00:49 AM 33.8672 -83.8536 63° Northeast 300 345 14,100 1,500 Climbing Atlanta Center
Sat 06:01:49 AM 33.9128 -83.7533 61° Northeast 316 364 15,200 1,500 Climbing Atlanta Center
Sat 06:02:49 AM 33.9647 -83.6631 55° Northeast 326 375 17,100 1,850 Climbing Atlanta Center
Sat 06:03:49 AM 34.0208 -83.5725 53° Northeast 331 381 18,900 1,750 Climbing Atlanta Center
Sat 06:04:49 AM 34.0769 -83.4869 52° Northeast 326 375 20,600 1,350 Climbing Atlanta Center
Sat 06:05:49 AM 34.1328 -83.3939 54° Northeast 326 375 21,600 950 Climbing Atlanta Center
Sat 06:06:49 AM 34.1867 -83.3081 53° Northeast 336 387 22,500 950 Climbing Atlanta Center
Sat 06:07:49 AM 34.2486 -83.2069 53° Northeast 358 412 23,500 1,050 Climbing Atlanta Center
Sat 06:08:49 AM 34.3125 -83.1033 53° Northeast 374 430 24,600 1,050 Climbing Atlanta Center
Sat 06:09:49 AM 34.3764 -82.9994 53° Northeast 380 437 25,600 1,000 Climbing Atlanta Center
Sat 06:10:49 AM 34.4422 -82.8928 53° Northeast 388 447 26,600 1,000 Climbing Atlanta Center
Sat 06:11:49 AM 34.5081 -82.7886 52° Northeast 388 447 27,600 1,050 Climbing Atlanta Center
Sat 06:12:49 AM 34.5736 -82.6842 53° Northeast 388 447 28,700 1,050 Climbing Atlanta Center
Sat 06:13:49 AM 34.6411 -82.5719 54° Northeast 388 447 29,700 1,000 Climbing Atlanta Center
Sat 06:14:49 AM 34.7067 -82.4647 53° Northeast 387 445 30,700 1,000 Climbing Atlanta Center
Sat 06:15:49 AM 34.7719 -82.3572 54° Northeast 393 452 31,700 1,050 Climbing Atlanta Center
Sat 06:16:49 AM 34.8372 -82.2522 53° Northeast 393 452 32,800 1,000 Climbing Atlanta Center
Sat 06:17:49 AM 34.9025 -82.1419 54° Northeast 393 452 33,700 1,000 Climbing Atlanta Center
Sat 06:18:49 AM 34.9694 -82.0339 53° Northeast 393 452 34,800 650 Climbing Atlanta Center
Sat 06:19:49 AM 35.0347 -81.9308 52° Northeast 388 447 35,000 100 Climbing Atlanta Center
Sat 06:20:49 AM 35.0972 -81.8075 58° Northeast 408 470 35,000  Level Atlanta Center
Sat 06:21:49 AM 35.1636 -81.6836 57° Northeast 428 493 35,000  Level Atlanta Center
Sat 06:22:49 AM 35.2300 -81.5572 57° Northeast 436 502 35,000  Level Atlanta Center
Sat 06:23:49 AM 35.2983 -81.4278 57° Northeast 441 507 35,000  Level Atlanta Center
Sat 06:24:49 AM 35.3664 -81.2933 58° Northeast 451 519 35,000  Level Atlanta Center
Sat 06:25:49 AM 35.4319 -81.1611 59° Northeast 457 526 35,000  Level Atlanta Center
Sat 06:26:49 AM 35.5019 -81.0286 57° Northeast 457 526 35,000  Level Atlanta Center
Sat 06:27:49 AM 35.5717 -80.9008 56° Northeast 457 526 35,000  Level Atlanta Center
Sat 06:28:49 AM 35.6394 -80.7731 57° Northeast 452 520 35,000  Level Atlanta Center
Sat 06:29:49 AM 35.7008 -80.6531 58° Northeast 452 520 35,000  Level Atlanta Center
Sat 06:30:49 AM 35.7681 -80.5222 58° Northeast 452 520 35,000 -36 Level Atlanta Center
Sat 06:32:38 AM 35.8953 -80.2739 58° Northeast 449 517 34,900 -391 Descending Washington Center
Sat 06:33:38 AM 35.9611 -80.1394 59° Northeast 443 510 33,900 -942 Descending Washington Center
Sat 06:34:39 AM 36.0306 -80.0097 56° Northeast 443 510 33,000 -454 Descending Washington Center
Sat 06:35:37 AM 36.1022 -79.8800 56° Northeast 448 516 33,000  Level Washington Center
Sat 06:36:39 AM 36.1669 -79.7600 56° Northeast 448 516 33,000  Level Washington Center
Sat 06:37:39 AM 36.2467 -79.6228 54° Northeast 448 516 33,000  Level Washington Center
Sat 06:38:39 AM 36.3111 -79.5050 56° Northeast 448 516 33,000 -508 Level Washington Center
Sat 06:39:37 AM 36.3908 -79.3617 55° Northeast 454 522 32,000 -1,220 Descending Washington Center
Sat 06:40:37 AM 36.4636 -79.2336 55° Northeast 454 522 30,600 -1,400 Descending Washington Center
Sat 06:41:37 AM 36.5364 -79.1050 55° Northeast 454 522 29,200 -1,550 Descending Washington Center
Sat 06:42:37 AM 36.6111 -78.9739 55° Northeast 454 522 27,500 -1,869 Descending Washington Center
Sat 06:43:39 AM 36.6728 -78.8550 57° Northeast 454 522 25,400 -1,261 Descending Washington Center
Sat 06:44:36 AM 36.7472 -78.7258 54° Northeast 454 522 25,000 -205 Descending Washington Center
Sat 06:45:36 AM 36.8153 -78.5961 57° Northeast 454 522 25,000  Level Washington Center
Sat 06:46:38 AM 36.8939 -78.4564 55° Northeast 454 522 25,000  Level Washington Center
Sat 06:47:38 AM 36.9656 -78.3267 55° Northeast 449 517 25,000  Level Washington Center
Sat 06:48:38 AM 37.0456 -78.2097 49° Northeast 449 517 25,000  Level Washington Center
Sat 06:49:39 AM 37.1514 -78.1403 28° Northeast 425 489 25,000  Level Washington Center
Sat 06:50:37 AM 37.2614 -78.0683 27° Northeast 431 496 25,000  Level Washington Center
Sat 06:51:38 AM 37.3711 -77.9961 28° Northeast 436 502 25,000 -353 Level Washington Center
Sat 06:52:36 AM 37.4811 -77.9211 28° Northeast 436 502 24,300 -1,059 Descending Washington Center
Sat 06:53:37 AM 37.5889 -77.8483 28° Northeast 441 507 22,900 -1,636 Descending Washington Center
Sat 06:54:37 AM 37.6944 -77.7753 29° Northeast 441 507 21,000 -2,168 Descending Washington Center
Sat 06:55:36 AM 37.7958 -77.7072 28° Northeast 431 496 18,600 -2,380 Descending Washington Center
Sat 06:56:38 AM 37.8886 -77.6442 28° Northeast 400 460 16,200 -2,459 Descending Washington Center
Sat 06:57:38 AM 37.9775 -77.5833 28° Northeast 372 428 13,600 -2,319 Descending Washington Center
Sat 06:58:37 AM 38.0553 -77.5378 25° Northeast 349 402 11,600 -1,736 Descending Washington Center
Sat 06:59:39 AM 38.1356 -77.4819 29° Northeast 336 387 10,100 -800 Descending Washington Center
Sat 07:00:37 AM 38.2050 -77.4336 29° Northeast 308 354 10,000 -807 Descending Washington Center
Sat 07:01:38 AM 38.2722 -77.3956 24° Northeast 279 321 8,500 -1,328 Descending Washington Center
Sat 07:02:39 AM 38.3397 -77.3572 24° Northeast 267 307 7,300 -1,261 Descending Washington Center
Sat 07:03:37 AM 38.4125 -77.3592 359° North 256 295 6,000 -1,119 Descending Washington Center
Sat 07:04:37 AM 38.4856 -77.3636 357° North 256 295 5,100 -492 Descending Washington Center
Sat 07:05:39 AM 38.5583 -77.3678 357° North 256 295 5,000 -298 Descending Washington Center
Sat 07:06:38 AM 38.6292 -77.3669 North 256 295 4,500 -454 Descending Washington Center
Sat 07:07:38 AM 38.7003 -77.3633 North 256 295 4,100 -192 Descending Washington Center
Sat 07:08:43 AM 38.7833 -77.3500 North 255 293 4,100  Level Potomac TRACON
Sat 07:09:43 AM 38.8667 -77.3500 360° North 259 298 4,100  Level Potomac TRACON
Sat 07:10:43 AM 38.9333 -77.3500 360° North 249 287 4,100  Level Potomac TRACON
Sat 07:11:37 AM 38.9833 -77.3500 360° North 239 275 4,100 -421 Level Potomac TRACON
Sat 07:12:37 AM 39.0500 -77.3500 360° North 244 281 3,300 -500 Descending Potomac TRACON
Sat 07:13:37 AM 39.1167 -77.3500 360° North 215 247 3,100 -158 Descending Potomac TRACON
Sat 07:14:31 AM 39.1667 -77.3500 360° North 208 239 3,000 -368 Descending Potomac TRACON
Sat 07:15:31 AM 39.1833 -77.4167 288° West 224 258 2,400 -450 Descending Potomac TRACON
Sat 07:16:31 AM 39.1333 -77.4333 194° South 193 222 2,100 -158 Descending Potomac TRACON
Sat 07:17:25 AM 39.0833 -77.4333 180° South 179 206 2,100  Level Potomac TRACON

Login

Don't have an account? Register now (free) for customized features, flight alerts, and more!